Aviation Digital Data Service (ADDS)

Output produced by METARs form (2342 UTC 23 May 2022)
found at http://www.aviationweather.gov/metar/data/
 
TAF SVBC 232200Z 2400/2500 09006KT 9999 BKN016 TX33/2418Z TN22/2406Z 
     BECMG 2200/2204 07004KT 9999 BKN016
       
TAF SVMI 232200Z 2400/2500 09006KT 9999 SCT016 TX32/2418Z TN22/2407Z 
     BECMG 2200/2204 09004KT 9999 SCT013 SCT100
       
TAF SVMC 232200Z 2400/2500 05005KT 9999 BKN016 TX33/2419Z TN22/2408Z 
     BECMG 2200/2204 09005KT 9999 SCT016
       
TAF SVMG 232200Z 2400/2500 08015KT 9999 BKN016 TX32/2418Z TN22/2408Z 
     BECMG 2200/2204 07012KT 9999 SCT016 FEW013
       
TAF SVJC 232200Z 2400/2500 26003KT 9999 BKN016 TX33/2419Z TN22/2407Z 
     BECMG 2200/2204 09005KT 9999 BKN016
       
TAF SVSA 232200Z 2400/2500 13002KT 9999 BKN016 TX31/2419Z TN17/2407Z 
     BECMG 2200/2204 05001KT 9999 SCT016